sensor_id;sensor_type;location;lat;lon;timestamp;P1;durP1;ratioP1;P2;durP2;ratioP2
68993;SDS011;56054;50.968;5.816;2022-11-13T00:02:53;17.67;;;9.43;;
68993;SDS011;56054;50.968;5.816;2022-11-13T00:06:19;16.27;;;9.67;;
68993;SDS011;56054;50.968;5.816;2022-11-13T00:10:00;17.23;;;10.20;;
68993;SDS011;56054;50.968;5.816;2022-11-13T00:13:35;19.23;;;10.53;;
68993;SDS011;56054;50.968;5.816;2022-11-13T00:17:01;14.60;;;9.00;;
68993;SDS011;56054;50.968;5.816;2022-11-13T00:20:45;18.23;;;10.23;;
68993;SDS011;56054;50.968;5.816;2022-11-13T00:24:24;16.40;;;10.33;;
68993;SDS011;56054;50.968;5.816;2022-11-13T00:27:53;18.73;;;9.97;;
68993;SDS011;56054;50.968;5.816;2022-11-13T00:31:24;17.10;;;9.47;;
68993;SDS011;56054;50.968;5.816;2022-11-13T00:35:03;17.23;;;9.17;;
68993;SDS011;56054;50.968;5.816;2022-11-13T00:38:29;14.57;;;9.60;;
68993;SDS011;56054;50.968;5.816;2022-11-13T00:41:58;16.60;;;8.87;;
68993;SDS011;56054;50.968;5.816;2022-11-13T00:45:30;18.37;;;10.00;;
68993;SDS011;56054;50.968;5.816;2022-11-13T00:48:58;17.97;;;9.67;;
68993;SDS011;56054;50.968;5.816;2022-11-13T00:56:20;17.43;;;9.33;;
68993;SDS011;56054;50.968;5.816;2022-11-13T00:59:53;19.13;;;10.07;;
68993;SDS011;56054;50.968;5.816;2022-11-13T01:03:19;21.33;;;10.07;;
68993;SDS011;56054;50.968;5.816;2022-11-13T01:07:00;14.50;;;8.73;;
68993;SDS011;56054;50.968;5.816;2022-11-13T01:10:46;19.20;;;9.57;;
68993;SDS011;56054;50.968;5.816;2022-11-13T01:14:25;18.60;;;9.43;;
68993;SDS011;56054;50.968;5.816;2022-11-13T01:17:58;17.00;;;9.20;;
68993;SDS011;56054;50.968;5.816;2022-11-13T01:25:39;14.00;;;8.60;;
68993;SDS011;56054;50.968;5.816;2022-11-13T01:29:05;14.17;;;8.73;;
68993;SDS011;56054;50.968;5.816;2022-11-13T01:32:32;16.93;;;8.73;;
68993;SDS011;56054;50.968;5.816;2022-11-13T01:39:53;14.97;;;8.97;;
68993;SDS011;56054;50.968;5.816;2022-11-13T01:43:34;14.60;;;8.77;;
68993;SDS011;56054;50.968;5.816;2022-11-13T01:47:13;16.97;;;8.97;;
68993;SDS011;56054;50.968;5.816;2022-11-13T01:50:39;12.73;;;8.80;;
68993;SDS011;56054;50.968;5.816;2022-11-13T01:54:15;18.43;;;8.57;;
68993;SDS011;56054;50.968;5.816;2022-11-13T02:01:57;14.17;;;8.40;;
68993;SDS011;56054;50.968;5.816;2022-11-13T02:05:27;15.57;;;8.30;;
68993;SDS011;56054;50.968;5.816;2022-11-13T02:08:58;12.87;;;8.40;;
68993;SDS011;56054;50.968;5.816;2022-11-13T02:12:31;16.30;;;8.83;;
68993;SDS011;56054;50.968;5.816;2022-11-13T02:16:01;12.33;;;7.93;;
68993;SDS011;56054;50.968;5.816;2022-11-13T02:19:48;13.77;;;8.73;;
68993;SDS011;56054;50.968;5.816;2022-11-13T02:27:33;15.97;;;8.23;;
68993;SDS011;56054;50.968;5.816;2022-11-13T02:31:18;17.17;;;8.70;;
68993;SDS011;56054;50.968;5.816;2022-11-13T02:38:59;16.07;;;9.17;;
68993;SDS011;56054;50.968;5.816;2022-11-13T02:42:34;15.97;;;8.90;;
68993;SDS011;56054;50.968;5.816;2022-11-13T02:50:15;15.33;;;9.37;;
68993;SDS011;56054;50.968;5.816;2022-11-13T02:53:48;12.93;;;8.53;;
68993;SDS011;56054;50.968;5.816;2022-11-13T02:57:18;19.00;;;8.30;;
68993;SDS011;56054;50.968;5.816;2022-11-13T03:00:48;13.27;;;8.17;;
68993;SDS011;56054;50.968;5.816;2022-11-13T03:08:16;14.13;;;8.43;;
68993;SDS011;56054;50.968;5.816;2022-11-13T03:15:37;14.00;;;7.63;;
68993;SDS011;56054;50.968;5.816;2022-11-13T03:19:25;12.23;;;7.90;;
68993;SDS011;56054;50.968;5.816;2022-11-13T03:23:09;13.17;;;7.97;;
68993;SDS011;56054;50.968;5.816;2022-11-13T03:26:41;17.57;;;8.77;;
68993;SDS011;56054;50.968;5.816;2022-11-13T03:30:25;12.93;;;7.83;;
68993;SDS011;56054;50.968;5.816;2022-11-13T03:34:25;14.83;;;8.10;;
68993;SDS011;56054;50.968;5.816;2022-11-13T03:37:58;17.13;;;8.57;;
68993;SDS011;56054;50.968;5.816;2022-11-13T03:41:28;14.03;;;7.77;;
68993;SDS011;56054;50.968;5.816;2022-11-13T03:45:04;11.63;;;7.40;;
68993;SDS011;56054;50.968;5.816;2022-11-13T03:48:32;13.03;;;7.90;;
68993;SDS011;56054;50.968;5.816;2022-11-13T03:52:10;13.37;;;7.77;;
68993;SDS011;56054;50.968;5.816;2022-11-13T03:55:36;13.60;;;7.33;;
68993;SDS011;56054;50.968;5.816;2022-11-13T03:59:02;13.23;;;7.90;;
68993;SDS011;56054;50.968;5.816;2022-11-13T04:02:50;11.40;;;7.67;;
68993;SDS011;56054;50.968;5.816;2022-11-13T04:10:16;15.13;;;8.00;;
68993;SDS011;56054;50.968;5.816;2022-11-13T04:13:43;16.63;;;8.10;;
68993;SDS011;56054;50.968;5.816;2022-11-13T04:21:28;12.37;;;7.90;;
68993;SDS011;56054;50.968;5.816;2022-11-13T04:32:48;10.77;;;7.43;;
68993;SDS011;56054;50.968;5.816;2022-11-13T04:40:35;11.60;;;6.77;;
68993;SDS011;56054;50.968;5.816;2022-11-13T04:44:29;11.30;;;6.57;;
68993;SDS011;56054;50.968;5.816;2022-11-13T04:52:05;14.00;;;7.07;;
68993;SDS011;56054;50.968;5.816;2022-11-13T04:55:51;8.80;;;6.30;;
68993;SDS011;56054;50.968;5.816;2022-11-13T04:59:48;12.27;;;7.20;;
68993;SDS011;56054;50.968;5.816;2022-11-13T05:27:27;12.27;;;6.73;;
68993;SDS011;56054;50.968;5.816;2022-11-13T05:34:59;16.17;;;7.00;;
68993;SDS011;56054;50.968;5.816;2022-11-13T05:38:24;12.67;;;7.43;;
68993;SDS011;56054;50.968;5.816;2022-11-13T05:41:52;15.60;;;7.17;;
68993;SDS011;56054;50.968;5.816;2022-11-13T05:45:33;14.87;;;7.00;;
68993;SDS011;56054;50.968;5.816;2022-11-13T05:57:28;10.10;;;6.77;;
68993;SDS011;56054;50.968;5.816;2022-11-13T06:01:03;10.43;;;6.30;;
68993;SDS011;56054;50.968;5.816;2022-11-13T06:13:03;12.73;;;6.87;;
68993;SDS011;56054;50.968;5.816;2022-11-13T06:16:38;13.77;;;7.20;;
68993;SDS011;56054;50.968;5.816;2022-11-13T06:20:09;14.50;;;7.87;;
68993;SDS011;56054;50.968;5.816;2022-11-13T06:23:53;10.83;;;6.83;;
68993;SDS011;56054;50.968;5.816;2022-11-13T06:27:21;11.00;;;6.83;;
68993;SDS011;56054;50.968;5.816;2022-11-13T06:30:48;12.20;;;6.57;;
68993;SDS011;56054;50.968;5.816;2022-11-13T06:38:05;13.43;;;7.73;;
68993;SDS011;56054;50.968;5.816;2022-11-13T06:41:49;11.33;;;7.17;;
68993;SDS011;56054;50.968;5.816;2022-11-13T06:45:24;10.90;;;6.27;;
68993;SDS011;56054;50.968;5.816;2022-11-13T06:48:53;9.83;;;6.27;;
68993;SDS011;56054;50.968;5.816;2022-11-13T06:52:45;11.00;;;6.37;;
68993;SDS011;56054;50.968;5.816;2022-11-13T06:56:11;13.07;;;7.07;;
68993;SDS011;56054;50.968;5.816;2022-11-13T06:59:37;10.80;;;6.33;;
68993;SDS011;56054;50.968;5.816;2022-11-13T07:03:19;10.43;;;6.33;;
68993;SDS011;56054;50.968;5.816;2022-11-13T07:06:52;11.70;;;7.20;;
68993;SDS011;56054;50.968;5.816;2022-11-13T07:18:28;16.20;;;8.03;;
68993;SDS011;56054;50.968;5.816;2022-11-13T07:26:25;12.60;;;7.23;;
68993;SDS011;56054;50.968;5.816;2022-11-13T07:30:09;10.53;;;6.67;;
68993;SDS011;56054;50.968;5.816;2022-11-13T07:33:39;10.90;;;7.17;;
68993;SDS011;56054;50.968;5.816;2022-11-13T07:37:07;12.50;;;6.80;;
68993;SDS011;56054;50.968;5.816;2022-11-13T07:40:33;15.53;;;6.93;;
68993;SDS011;56054;50.968;5.816;2022-11-13T07:44:08;18.07;;;7.43;;
68993;SDS011;56054;50.968;5.816;2022-11-13T07:47:34;12.03;;;7.33;;
68993;SDS011;56054;50.968;5.816;2022-11-13T07:51:08;15.97;;;7.37;;
68993;SDS011;56054;50.968;5.816;2022-11-13T07:54:41;13.40;;;8.10;;
68993;SDS011;56054;50.968;5.816;2022-11-13T07:58:18;13.27;;;7.70;;
68993;SDS011;56054;50.968;5.816;2022-11-13T08:02:00;13.20;;;7.90;;
68993;SDS011;56054;50.968;5.816;2022-11-13T08:05:28;12.83;;;7.73;;
68993;SDS011;56054;50.968;5.816;2022-11-13T08:09:13;14.93;;;7.67;;
68993;SDS011;56054;50.968;5.816;2022-11-13T08:12:46;11.57;;;7.83;;
68993;SDS011;56054;50.968;5.816;2022-11-13T08:16:22;10.17;;;6.97;;
68993;SDS011;56054;50.968;5.816;2022-11-13T08:19:54;12.17;;;7.13;;
68993;SDS011;56054;50.968;5.816;2022-11-13T08:23:19;11.63;;;7.03;;
68993;SDS011;56054;50.968;5.816;2022-11-13T08:31:03;11.03;;;7.40;;
68993;SDS011;56054;50.968;5.816;2022-11-13T08:38:46;10.27;;;6.77;;
68993;SDS011;56054;50.968;5.816;2022-11-13T08:42:30;13.33;;;7.07;;
68993;SDS011;56054;50.968;5.816;2022-11-13T08:45:57;10.70;;;6.77;;
68993;SDS011;56054;50.968;5.816;2022-11-13T08:53:38;9.17;;;6.03;;
68993;SDS011;56054;50.968;5.816;2022-11-13T09:05:00;10.47;;;6.17;;
68993;SDS011;56054;50.968;5.816;2022-11-13T09:12:48;8.77;;;5.37;;
68993;SDS011;56054;50.968;5.816;2022-11-13T09:16:14;8.07;;;4.93;;
68993;SDS011;56054;50.968;5.816;2022-11-13T09:19:46;9.00;;;5.37;;
68993;SDS011;56054;50.968;5.816;2022-11-13T09:23:12;7.10;;;4.90;;
68993;SDS011;56054;50.968;5.816;2022-11-13T09:26:38;9.93;;;5.17;;
68993;SDS011;56054;50.968;5.816;2022-11-13T09:37:50;9.03;;;5.37;;
68993;SDS011;56054;50.968;5.816;2022-11-13T09:41:20;8.20;;;5.50;;
68993;SDS011;56054;50.968;5.816;2022-11-13T09:45:05;8.20;;;5.23;;
68993;SDS011;56054;50.968;5.816;2022-11-13T09:48:39;9.50;;;5.30;;
68993;SDS011;56054;50.968;5.816;2022-11-13T09:52:23;9.07;;;4.53;;
68993;SDS011;56054;50.968;5.816;2022-11-13T10:00:32;7.73;;;4.83;;
68993;SDS011;56054;50.968;5.816;2022-11-13T10:04:10;8.47;;;5.00;;
68993;SDS011;56054;50.968;5.816;2022-11-13T10:11:52;7.20;;;4.17;;
68993;SDS011;56054;50.968;5.816;2022-11-13T10:15:39;11.73;;;5.03;;
68993;SDS011;56054;50.968;5.816;2022-11-13T10:19:38;5.97;;;4.13;;
68993;SDS011;56054;50.968;5.816;2022-11-13T10:23:16;9.77;;;4.33;;
68993;SDS011;56054;50.968;5.816;2022-11-13T10:26:49;6.23;;;4.00;;
68993;SDS011;56054;50.968;5.816;2022-11-13T10:30:18;5.60;;;3.93;;
68993;SDS011;56054;50.968;5.816;2022-11-13T10:33:44;9.50;;;4.53;;
68993;SDS011;56054;50.968;5.816;2022-11-13T10:41:17;6.87;;;4.00;;
68993;SDS011;56054;50.968;5.816;2022-11-13T10:48:48;5.40;;;3.47;;
68993;SDS011;56054;50.968;5.816;2022-11-13T10:52:33;5.27;;;3.17;;
68993;SDS011;56054;50.968;5.816;2022-11-13T10:56:34;5.07;;;3.00;;
68993;SDS011;56054;50.968;5.816;2022-11-13T11:00:20;3.77;;;2.40;;
68993;SDS011;56054;50.968;5.816;2022-11-13T11:04:19;5.93;;;2.20;;
68993;SDS011;56054;50.968;5.816;2022-11-13T11:08:07;2.43;;;1.80;;
68993;SDS011;56054;50.968;5.816;2022-11-13T11:11:34;5.93;;;2.20;;
68993;SDS011;56054;50.968;5.816;2022-11-13T11:19:04;4.10;;;2.20;;
68993;SDS011;56054;50.968;5.816;2022-11-13T11:22:35;3.40;;;2.07;;
68993;SDS011;56054;50.968;5.816;2022-11-13T11:30:38;3.87;;;2.17;;
68993;SDS011;56054;50.968;5.816;2022-11-13T11:38:20;4.07;;;2.03;;
68993;SDS011;56054;50.968;5.816;2022-11-13T11:46:24;4.80;;;2.93;;
68993;SDS011;56054;50.968;5.816;2022-11-13T11:49:50;6.13;;;3.10;;
68993;SDS011;56054;50.968;5.816;2022-11-13T11:53:23;2.63;;;1.80;;
68993;SDS011;56054;50.968;5.816;2022-11-13T11:57:05;7.23;;;2.00;;
68993;SDS011;56054;50.968;5.816;2022-11-13T12:00:47;3.23;;;1.47;;
68993;SDS011;56054;50.968;5.816;2022-11-13T12:04:42;4.27;;;1.53;;
68993;SDS011;56054;50.968;5.816;2022-11-13T12:12:23;4.90;;;2.10;;
68993;SDS011;56054;50.968;5.816;2022-11-13T12:25:18;3.50;;;1.53;;
68993;SDS011;56054;50.968;5.816;2022-11-13T12:36:33;3.47;;;1.80;;
68993;SDS011;56054;50.968;5.816;2022-11-13T12:40:02;6.07;;;2.30;;
68993;SDS011;56054;50.968;5.816;2022-11-13T12:51:38;5.53;;;2.10;;
68993;SDS011;56054;50.968;5.816;2022-11-13T12:55:22;2.70;;;1.67;;
68993;SDS011;56054;50.968;5.816;2022-11-13T13:15:08;3.10;;;1.73;;
68993;SDS011;56054;50.968;5.816;2022-11-13T13:18:43;3.30;;;1.80;;
68993;SDS011;56054;50.968;5.816;2022-11-13T13:22:23;2.78;;;1.73;;
68993;SDS011;56054;50.968;5.816;2022-11-13T13:26:27;3.70;;;1.35;;
68993;SDS011;56054;50.968;5.816;2022-11-13T13:30:20;3.30;;;1.45;;
68993;SDS011;56054;50.968;5.816;2022-11-13T13:49:28;6.68;;;1.80;;
68993;SDS011;56054;50.968;5.816;2022-11-13T13:53:08;3.38;;;1.90;;
68993;SDS011;56054;50.968;5.816;2022-11-13T14:01:28;3.15;;;1.77;;
68993;SDS011;56054;50.968;5.816;2022-11-13T14:05:00;3.15;;;1.92;;
68993;SDS011;56054;50.968;5.816;2022-11-13T14:08:27;4.20;;;1.65;;
68993;SDS011;56054;50.968;5.816;2022-11-13T14:12:00;4.95;;;1.83;;
68993;SDS011;56054;50.968;5.816;2022-11-13T14:15:32;3.90;;;1.98;;
68993;SDS011;56054;50.968;5.816;2022-11-13T14:19:06;3.97;;;2.00;;
68993;SDS011;56054;50.968;5.816;2022-11-13T14:22:38;5.25;;;1.98;;
68993;SDS011;56054;50.968;5.816;2022-11-13T14:26:12;3.95;;;1.63;;
68993;SDS011;56054;50.968;5.816;2022-11-13T14:29:49;3.17;;;1.45;;
68993;SDS011;56054;50.968;5.816;2022-11-13T14:33:20;2.78;;;1.90;;
68993;SDS011;56054;50.968;5.816;2022-11-13T14:40:45;3.80;;;2.03;;
68993;SDS011;56054;50.968;5.816;2022-11-13T14:44:33;3.75;;;2.30;;
68993;SDS011;56054;50.968;5.816;2022-11-13T14:51:53;5.38;;;2.97;;
68993;SDS011;56054;50.968;5.816;2022-11-13T14:55:51;9.38;;;4.80;;
68993;SDS011;56054;50.968;5.816;2022-11-13T15:04:11;8.02;;;3.45;;
68993;SDS011;56054;50.968;5.816;2022-11-13T15:07:55;12.10;;;4.32;;
68993;SDS011;56054;50.968;5.816;2022-11-13T15:11:29;10.95;;;5.43;;
68993;SDS011;56054;50.968;5.816;2022-11-13T15:14:54;17.30;;;7.55;;
68993;SDS011;56054;50.968;5.816;2022-11-13T15:18:34;9.38;;;5.63;;
68993;SDS011;56054;50.968;5.816;2022-11-13T15:22:00;6.05;;;3.50;;
68993;SDS011;56054;50.968;5.816;2022-11-13T15:25:29;5.22;;;3.30;;
68993;SDS011;56054;50.968;5.816;2022-11-13T15:29:10;9.07;;;4.80;;
68993;SDS011;56054;50.968;5.816;2022-11-13T15:32:51;9.13;;;5.47;;
68993;SDS011;56054;50.968;5.816;2022-11-13T15:40:30;10.30;;;5.30;;
68993;SDS011;56054;50.968;5.816;2022-11-13T15:48:14;5.80;;;3.38;;
68993;SDS011;56054;50.968;5.816;2022-11-13T15:51:41;4.72;;;2.20;;
68993;SDS011;56054;50.968;5.816;2022-11-13T15:55:17;3.70;;;1.53;;
68993;SDS011;56054;50.968;5.816;2022-11-13T15:58:48;4.22;;;2.50;;
68993;SDS011;56054;50.968;5.816;2022-11-13T16:02:15;4.10;;;2.28;;
68993;SDS011;56054;50.968;5.816;2022-11-13T16:05:41;4.30;;;2.03;;
68993;SDS011;56054;50.968;5.816;2022-11-13T16:09:13;5.77;;;2.87;;
68993;SDS011;56054;50.968;5.816;2022-11-13T16:12:45;6.07;;;3.30;;
68993;SDS011;56054;50.968;5.816;2022-11-13T16:16:16;6.33;;;2.60;;
68993;SDS011;56054;50.968;5.816;2022-11-13T16:20:08;5.70;;;2.88;;
68993;SDS011;56054;50.968;5.816;2022-11-13T16:23:36;3.57;;;2.23;;
68993;SDS011;56054;50.968;5.816;2022-11-13T16:27:11;5.23;;;2.60;;
68993;SDS011;56054;50.968;5.816;2022-11-13T16:30:58;4.73;;;2.27;;
68993;SDS011;56054;50.968;5.816;2022-11-13T16:34:24;4.83;;;2.30;;
68993;SDS011;56054;50.968;5.816;2022-11-13T16:37:50;5.90;;;3.23;;
68993;SDS011;56054;50.968;5.816;2022-11-13T16:41:25;7.13;;;2.33;;
68993;SDS011;56054;50.968;5.816;2022-11-13T16:44:51;3.47;;;1.83;;
68993;SDS011;56054;50.968;5.816;2022-11-13T16:48:17;3.97;;;1.77;;
68993;SDS011;56054;50.968;5.816;2022-11-13T16:51:48;2.73;;;1.70;;
68993;SDS011;56054;50.968;5.816;2022-11-13T16:55:18;3.20;;;1.90;;
68993;SDS011;56054;50.968;5.816;2022-11-13T16:58:44;5.83;;;3.20;;
68993;SDS011;56054;50.968;5.816;2022-11-13T17:02:14;6.23;;;3.40;;
68993;SDS011;56054;50.968;5.816;2022-11-13T17:05:41;5.03;;;2.33;;
68993;SDS011;56054;50.968;5.816;2022-11-13T17:09:08;3.10;;;2.10;;
68993;SDS011;56054;50.968;5.816;2022-11-13T17:12:38;2.87;;;1.70;;
68993;SDS011;56054;50.968;5.816;2022-11-13T17:16:12;4.93;;;2.40;;
68993;SDS011;56054;50.968;5.816;2022-11-13T17:19:42;5.90;;;1.70;;
68993;SDS011;56054;50.968;5.816;2022-11-13T17:23:14;3.57;;;2.20;;
68993;SDS011;56054;50.968;5.816;2022-11-13T17:26:45;4.83;;;2.80;;
68993;SDS011;56054;50.968;5.816;2022-11-13T17:30:20;7.90;;;3.93;;
68993;SDS011;56054;50.968;5.816;2022-11-13T17:34:01;3.93;;;2.17;;
68993;SDS011;56054;50.968;5.816;2022-11-13T17:37:27;4.63;;;2.70;;
68993;SDS011;56054;50.968;5.816;2022-11-13T17:41:03;8.20;;;2.63;;
68993;SDS011;56054;50.968;5.816;2022-11-13T17:44:32;5.47;;;2.90;;
68993;SDS011;56054;50.968;5.816;2022-11-13T17:48:04;5.33;;;2.20;;
68993;SDS011;56054;50.968;5.816;2022-11-13T17:51:33;6.73;;;1.93;;
68993;SDS011;56054;50.968;5.816;2022-11-13T17:54:59;4.30;;;2.00;;
68993;SDS011;56054;50.968;5.816;2022-11-13T17:58:27;4.13;;;2.37;;
68993;SDS011;56054;50.968;5.816;2022-11-13T18:02:13;4.57;;;2.40;;
68993;SDS011;56054;50.968;5.816;2022-11-13T18:05:43;4.73;;;2.40;;
68993;SDS011;56054;50.968;5.816;2022-11-13T18:09:14;5.70;;;3.70;;
68993;SDS011;56054;50.968;5.816;2022-11-13T18:12:43;6.13;;;3.00;;
68993;SDS011;56054;50.968;5.816;2022-11-13T18:16:21;7.67;;;3.40;;
68993;SDS011;56054;50.968;5.816;2022-11-13T18:19:54;5.27;;;3.10;;
68993;SDS011;56054;50.968;5.816;2022-11-13T18:23:20;8.10;;;4.47;;
68993;SDS011;56054;50.968;5.816;2022-11-13T18:26:46;11.30;;;6.70;;
68993;SDS011;56054;50.968;5.816;2022-11-13T18:30:14;23.43;;;11.90;;
68993;SDS011;56054;50.968;5.816;2022-11-13T18:33:40;20.03;;;9.90;;
68993;SDS011;56054;50.968;5.816;2022-11-13T18:37:19;10.80;;;5.90;;
68993;SDS011;56054;50.968;5.816;2022-11-13T18:45:00;7.77;;;4.27;;
68993;SDS011;56054;50.968;5.816;2022-11-13T18:48:36;12.10;;;5.73;;
68993;SDS011;56054;50.968;5.816;2022-11-13T18:56:22;9.90;;;6.00;;
68993;SDS011;56054;50.968;5.816;2022-11-13T19:00:28;11.70;;;5.93;;
68993;SDS011;56054;50.968;5.816;2022-11-13T19:04:06;10.50;;;4.77;;
68993;SDS011;56054;50.968;5.816;2022-11-13T19:07:59;10.77;;;5.20;;
68993;SDS011;56054;50.968;5.816;2022-11-13T19:11:58;8.47;;;5.37;;
68993;SDS011;56054;50.968;5.816;2022-11-13T19:15:34;10.43;;;5.10;;
68993;SDS011;56054;50.968;5.816;2022-11-13T19:19:03;9.77;;;5.23;;
68993;SDS011;56054;50.968;5.816;2022-11-13T19:22:49;13.20;;;5.90;;
68993;SDS011;56054;50.968;5.816;2022-11-13T19:26:30;10.33;;;6.07;;
68993;SDS011;56054;50.968;5.816;2022-11-13T19:30:43;11.00;;;6.40;;
68993;SDS011;56054;50.968;5.816;2022-11-13T19:34:30;11.63;;;6.03;;
68993;SDS011;56054;50.968;5.816;2022-11-13T19:38:33;11.57;;;6.80;;
68993;SDS011;56054;50.968;5.816;2022-11-13T19:42:23;11.27;;;6.43;;
68993;SDS011;56054;50.968;5.816;2022-11-13T19:45:49;14.57;;;7.63;;
68993;SDS011;56054;50.968;5.816;2022-11-13T19:49:15;11.53;;;6.40;;
68993;SDS011;56054;50.968;5.816;2022-11-13T19:52:41;14.43;;;6.90;;
68993;SDS011;56054;50.968;5.816;2022-11-13T19:56:07;14.37;;;7.90;;
68993;SDS011;56054;50.968;5.816;2022-11-13T19:59:33;19.13;;;8.47;;
68993;SDS011;56054;50.968;5.816;2022-11-13T20:03:00;13.43;;;7.70;;
68993;SDS011;56054;50.968;5.816;2022-11-13T20:06:30;16.60;;;7.77;;
68993;SDS011;56054;50.968;5.816;2022-11-13T20:09:57;19.03;;;10.03;;
68993;SDS011;56054;50.968;5.816;2022-11-13T20:13:29;18.77;;;11.03;;
68993;SDS011;56054;50.968;5.816;2022-11-13T20:16:56;19.77;;;9.93;;
68993;SDS011;56054;50.968;5.816;2022-11-13T20:20:22;18.77;;;9.67;;
68993;SDS011;56054;50.968;5.816;2022-11-13T20:23:54;20.53;;;10.90;;
68993;SDS011;56054;50.968;5.816;2022-11-13T20:27:21;21.87;;;10.53;;
68993;SDS011;56054;50.968;5.816;2022-11-13T20:30:48;21.37;;;12.10;;
68993;SDS011;56054;50.968;5.816;2022-11-13T20:34:14;20.70;;;11.27;;
68993;SDS011;56054;50.968;5.816;2022-11-13T20:38:10;21.27;;;10.93;;
68993;SDS011;56054;50.968;5.816;2022-11-13T20:41:36;21.50;;;11.87;;
68993;SDS011;56054;50.968;5.816;2022-11-13T20:45:15;18.43;;;10.73;;
68993;SDS011;56054;50.968;5.816;2022-11-13T20:48:45;23.43;;;11.63;;
68993;SDS011;56054;50.968;5.816;2022-11-13T20:52:14;20.50;;;10.40;;
68993;SDS011;56054;50.968;5.816;2022-11-13T20:55:40;18.43;;;10.73;;
68993;SDS011;56054;50.968;5.816;2022-11-13T20:59:10;17.50;;;10.60;;
68993;SDS011;56054;50.968;5.816;2022-11-13T21:02:41;20.73;;;11.33;;
68993;SDS011;56054;50.968;5.816;2022-11-13T21:06:20;23.67;;;12.50;;
68993;SDS011;56054;50.968;5.816;2022-11-13T21:10:10;25.67;;;13.57;;
68993;SDS011;56054;50.968;5.816;2022-11-13T21:13:39;22.90;;;13.00;;
68993;SDS011;56054;50.968;5.816;2022-11-13T21:17:04;23.40;;;12.53;;
68993;SDS011;56054;50.968;5.816;2022-11-13T21:20:35;24.80;;;12.77;;
68993;SDS011;56054;50.968;5.816;2022-11-13T21:24:01;28.37;;;13.63;;
68993;SDS011;56054;50.968;5.816;2022-11-13T21:27:27;28.97;;;14.00;;
68993;SDS011;56054;50.968;5.816;2022-11-13T21:30:54;22.53;;;13.30;;
68993;SDS011;56054;50.968;5.816;2022-11-13T21:34:40;24.67;;;13.70;;
68993;SDS011;56054;50.968;5.816;2022-11-13T21:38:06;24.53;;;12.97;;
68993;SDS011;56054;50.968;5.816;2022-11-13T21:41:34;25.17;;;14.20;;
68993;SDS011;56054;50.968;5.816;2022-11-13T21:45:00;29.47;;;14.83;;
68993;SDS011;56054;50.968;5.816;2022-11-13T21:48:27;24.93;;;13.40;;
68993;SDS011;56054;50.968;5.816;2022-11-13T21:51:54;28.00;;;14.33;;
68993;SDS011;56054;50.968;5.816;2022-11-13T21:55:20;22.03;;;13.20;;
68993;SDS011;56054;50.968;5.816;2022-11-13T21:58:46;29.23;;;14.30;;
68993;SDS011;56054;50.968;5.816;2022-11-13T22:02:21;30.73;;;13.37;;
68993;SDS011;56054;50.968;5.816;2022-11-13T22:09:46;22.00;;;13.00;;
68993;SDS011;56054;50.968;5.816;2022-11-13T22:13:24;22.77;;;11.70;;
68993;SDS011;56054;50.968;5.816;2022-11-13T22:20:52;21.80;;;11.57;;
68993;SDS011;56054;50.968;5.816;2022-11-13T22:24:31;19.87;;;10.60;;
68993;SDS011;56054;50.968;5.816;2022-11-13T22:28:03;15.27;;;8.80;;
68993;SDS011;56054;50.968;5.816;2022-11-13T22:31:34;14.83;;;8.10;;
68993;SDS011;56054;50.968;5.816;2022-11-13T22:35:00;12.43;;;7.40;;
68993;SDS011;56054;50.968;5.816;2022-11-13T22:38:29;12.80;;;7.80;;
68993;SDS011;56054;50.968;5.816;2022-11-13T22:41:55;18.07;;;8.73;;
68993;SDS011;56054;50.968;5.816;2022-11-13T22:45:25;14.40;;;7.73;;
68993;SDS011;56054;50.968;5.816;2022-11-13T22:49:10;13.57;;;8.20;;
68993;SDS011;56054;50.968;5.816;2022-11-13T22:52:39;11.80;;;7.20;;
68993;SDS011;56054;50.968;5.816;2022-11-13T22:56:21;16.33;;;7.20;;
68993;SDS011;56054;50.968;5.816;2022-11-13T23:00:04;14.97;;;7.03;;
68993;SDS011;56054;50.968;5.816;2022-11-13T23:03:37;12.17;;;6.10;;
68993;SDS011;56054;50.968;5.816;2022-11-13T23:07:06;12.43;;;6.20;;
68993;SDS011;56054;50.968;5.816;2022-11-13T23:10:33;10.70;;;6.17;;
68993;SDS011;56054;50.968;5.816;2022-11-13T23:14:00;11.23;;;6.47;;
68993;SDS011;56054;50.968;5.816;2022-11-13T23:17:27;12.93;;;6.03;;
68993;SDS011;56054;50.968;5.816;2022-11-13T23:20:53;14.73;;;6.17;;
68993;SDS011;56054;50.968;5.816;2022-11-13T23:24:24;12.27;;;6.37;;
68993;SDS011;56054;50.968;5.816;2022-11-13T23:27:50;12.40;;;6.57;;
68993;SDS011;56054;50.968;5.816;2022-11-13T23:31:19;12.43;;;6.40;;
68993;SDS011;56054;50.968;5.816;2022-11-13T23:34:50;12.40;;;6.47;;
68993;SDS011;56054;50.968;5.816;2022-11-13T23:38:16;11.83;;;7.03;;
68993;SDS011;56054;50.968;5.816;2022-11-13T23:41:43;16.30;;;7.17;;
68993;SDS011;56054;50.968;5.816;2022-11-13T23:45:20;15.53;;;6.17;;
68993;SDS011;56054;50.968;5.816;2022-11-13T23:48:45;14.13;;;6.90;;
68993;SDS011;56054;50.968;5.816;2022-11-13T23:52:14;12.10;;;6.67;;
68993;SDS011;56054;50.968;5.816;2022-11-13T23:55:45;11.17;;;6.97;;
68993;SDS011;56054;50.968;5.816;2022-11-13T23:59:11;10.77;;;6.50;;
